Time;durP1;ratioP1;P1;durP2;ratioP2;P2;SDS_P1;SDS_P2;PMS_P1;PMS_P2;Temp;Humidity;BMP_temperature;BMP_pressure;BME280_temperature;BME280_humidity;BME280_pressure;Samples;Min_cycle;Max_cycle;Signal;HPM_P1;HPM_P2
2021/12/29 00:00:01;;;;;;;19.10;3.75;;;9.80;99.90;;;;;;5036621;28;20385;-74
2021/12/29 00:02:27;;;;;;;16.33;4.15;;;9.80;99.90;;;;;;5036613;28;20049;-73
2021/12/29 00:04:52;;;;;;;23.23;4.22;;;9.80;99.90;;;;;;5036244;28;20029;-73
2021/12/29 00:07:18;;;;;;;17.77;4.00;;;9.80;99.90;;;;;;5035156;28;20386;-73
2021/12/29 00:09:44;;;;;;;18.25;4.00;;;9.80;99.90;;;;;;5036246;28;20064;-73
2021/12/29 00:12:10;;;;;;;18.67;3.72;;;9.80;99.90;;;;;;5035438;28;20033;-73
2021/12/29 00:14:37;;;;;;;17.92;4.18;;;9.80;99.90;;;;;;5035673;28;20070;-73
2021/12/29 00:17:03;;;;;;;17.17;3.30;;;9.80;99.90;;;;;;5034699;28;20040;-73
2021/12/29 00:19:29;;;;;;;17.42;3.40;;;9.80;99.90;;;;;;5035885;28;20036;-73
2021/12/29 00:21:55;;;;;;;15.55;3.05;;;9.80;99.90;;;;;;5035592;28;20021;-74
2021/12/29 00:24:21;;;;;;;16.95;3.83;;;9.80;99.90;;;;;;5034644;28;20029;-74
2021/12/29 00:26:46;;;;;;;13.60;3.53;;;9.80;99.90;;;;;;5035905;28;20025;-73
2021/12/29 00:29:12;;;;;;;18.48;3.75;;;9.80;99.90;;;;;;5035492;28;20057;-73
2021/12/29 00:31:37;;;;;;;21.00;3.35;;;9.80;99.90;;;;;;5036341;28;20025;-74
2021/12/29 00:34:03;;;;;;;12.45;3.17;;;9.80;99.90;;;;;;5034748;28;20026;-73
2021/12/29 00:36:28;;;;;;;13.05;2.88;;;9.80;99.90;;;;;;5035820;28;20026;-73
2021/12/29 00:38:54;;;;;;;13.57;2.60;;;9.80;99.90;;;;;;5036050;28;20025;-73
2021/12/29 00:41:21;;;;;;;13.40;2.75;;;9.80;99.90;;;;;;5036106;28;20029;-73
2021/12/29 00:43:47;;;;;;;10.43;2.88;;;9.70;99.90;;;;;;5035220;28;20041;-73
2021/12/29 00:46:14;;;;;;;9.65;2.53;;;9.80;99.90;;;;;;5034469;28;20112;-73
2021/12/29 00:48:43;;;;;;;10.95;2.80;;;9.70;99.90;;;;;;5034959;28;20093;-74
2021/12/29 00:51:09;;;;;;;10.07;2.50;;;9.70;99.90;;;;;;5034992;28;20486;-74
2021/12/29 00:53:36;;;;;;;13.93;2.95;;;9.80;99.90;;;;;;5035554;28;20048;-74
2021/12/29 00:56:03;;;;;;;14.18;2.88;;;9.70;99.90;;;;;;5035244;28;20336;-73
2021/12/29 00:58:29;;;;;;;10.38;2.65;;;9.70;99.90;;;;;;5035292;28;20018;-73
2021/12/29 01:00:55;;;;;;;18.27;3.15;;;9.70;99.90;;;;;;5036550;28;20018;-73
2021/12/29 01:03:21;;;;;;;12.98;3.10;;;9.70;99.90;;;;;;5035103;28;20053;-73
2021/12/29 01:05:47;;;;;;;16.50;3.13;;;9.70;99.90;;;;;;5034514;28;20037;-74
2021/12/29 01:08:13;;;;;;;12.55;2.63;;;9.70;99.90;;;;;;5035514;28;20033;-74
2021/12/29 01:10:41;;;;;;;12.98;2.85;;;9.70;99.90;;;;;;5033721;28;20543;-73
2021/12/29 01:13:09;;;;;;;13.60;2.80;;;9.70;99.90;;;;;;5035630;28;20053;-74
2021/12/29 01:15:55;;;;;;;11.30;2.35;;;9.70;99.90;;;;;;5036021;28;20017;-73
2021/12/29 01:18:21;;;;;;;8.82;2.30;;;9.70;99.90;;;;;;5035170;28;20336;-73
2021/12/29 01:20:46;;;;;;;10.15;2.35;;;9.70;99.90;;;;;;5034033;28;20017;-74
2021/12/29 01:23:12;;;;;;;11.80;2.40;;;9.70;99.90;;;;;;5034460;28;20052;-74
2021/12/29 01:25:37;;;;;;;12.88;2.40;;;9.70;99.90;;;;;;5032944;28;20057;-73
2021/12/29 01:28:03;;;;;;;10.27;2.45;;;9.70;99.90;;;;;;5034112;28;20049;-73
2021/12/29 01:30:29;;;;;;;10.13;2.50;;;9.70;99.90;;;;;;5034271;28;20080;-73
2021/12/29 01:32:55;;;;;;;13.15;2.90;;;9.70;99.90;;;;;;5034145;28;20382;-73
2021/12/29 01:35:21;;;;;;;14.60;2.75;;;9.70;99.90;;;;;;5034425;28;20424;-73
2021/12/29 01:37:46;;;;;;;10.82;2.75;;;9.70;99.90;;;;;;5034766;28;20077;-73
2021/12/29 01:40:15;;;;;;;10.57;2.50;;;9.70;99.90;;;;;;5034645;28;20397;-74
2021/12/29 01:42:41;;;;;;;11.43;2.38;;;9.70;99.90;;;;;;5034259;28;20017;-74
2021/12/29 01:45:09;;;;;;;12.35;2.47;;;9.70;99.90;;;;;;5033954;28;20098;-74
2021/12/29 01:47:35;;;;;;;20.67;3.25;;;9.70;99.90;;;;;;5033793;28;20048;-74
2021/12/29 01:50:02;;;;;;;14.80;3.20;;;9.70;99.90;;;;;;5033351;28;20026;-74
2021/12/29 01:52:34;;;;;;;17.15;3.45;;;9.70;99.90;;;;;;5034216;28;20047;-74
2021/12/29 01:55:00;;;;;;;20.52;3.65;;;9.70;99.90;;;;;;5035076;28;20440;-74
2021/12/29 01:57:26;;;;;;;21.40;4.55;;;9.70;99.90;;;;;;5034948;28;20029;-74
2021/12/29 01:59:51;;;;;;;19.77;4.18;;;9.70;99.90;;;;;;5033383;28;20530;-74
2021/12/29 02:02:17;;;;;;;17.02;4.15;;;9.70;99.90;;;;;;5034293;28;20053;-74
2021/12/29 02:04:45;;;;;;;18.95;4.20;;;9.70;99.90;;;;;;5034605;28;20033;-74
2021/12/29 02:07:11;;;;;;;17.88;3.83;;;9.70;99.90;;;;;;5035034;28;20089;-74
2021/12/29 02:09:38;;;;;;;14.63;4.07;;;9.70;99.90;;;;;;5033727;28;20037;-73
2021/12/29 02:12:05;;;;;;;18.85;4.43;;;9.70;99.90;;;;;;5032615;28;20074;-74
2021/12/29 02:14:31;;;;;;;22.55;5.05;;;9.70;99.90;;;;;;5034531;28;20155;-74
2021/12/29 02:16:57;;;;;;;20.92;4.50;;;9.70;99.90;;;;;;5034330;28;20116;-73
2021/12/29 02:19:25;;;;;;;19.30;5.18;;;9.70;99.90;;;;;;5034152;28;20064;-73
2021/12/29 02:22:02;;;;;;;16.65;4.75;;;9.70;99.90;;;;;;5032007;28;20459;-73
2021/12/29 02:24:54;;;;;;;22.77;5.50;;;9.70;99.90;;;;;;5033482;28;20441;-74
2021/12/29 02:27:14;;;;;;;26.15;5.20;;;9.70;99.90;;;;;;5033105;28;20136;-74
2021/12/29 02:29:42;;;;;;;25.75;5.07;;;9.70;99.90;;;;;;5033271;28;20072;-73
2021/12/29 02:32:07;;;;;;;26.55;5.75;;;9.70;99.90;;;;;;5033152;28;20051;-73
2021/12/29 02:34:33;;;;;;;23.10;5.57;;;9.70;99.90;;;;;;5031981;28;20030;-74
2021/12/29 02:37:02;;;;;;;23.70;5.18;;;9.60;99.90;;;;;;5032791;28;20033;-74
2021/12/29 02:39:31;;;;;;;22.90;5.50;;;9.70;99.90;;;;;;5033224;28;20526;-73
2021/12/29 02:42:00;;;;;;;22.17;4.82;;;9.60;99.90;;;;;;5033199;28;20014;-73
2021/12/29 02:44:28;;;;;;;25.60;5.70;;;9.60;99.90;;;;;;5032506;28;20037;-73
2021/12/29 02:46:57;;;;;;;20.35;6.10;;;9.60;99.90;;;;;;5032874;28;20036;-73
2021/12/29 02:49:24;;;;;;;23.75;5.90;;;9.60;99.90;;;;;;5032259;28;20038;-73
2021/12/29 02:51:49;;;;;;;27.58;5.10;;;9.60;99.90;;;;;;5032328;28;20017;-73
2021/12/29 02:54:16;;;;;;;20.00;5.35;;;9.60;99.90;;;;;;5032623;28;20013;-72
2021/12/29 02:56:44;;;;;;;21.58;5.45;;;9.60;99.90;;;;;;5031331;28;20078;-73
2021/12/29 02:59:09;;;;;;;20.33;5.20;;;9.60;99.90;;;;;;5033695;28;20028;-73
2021/12/29 03:01:35;;;;;;;22.35;5.50;;;9.60;99.90;;;;;;5032885;28;20437;-73
2021/12/29 03:04:05;;;;;;;27.05;5.70;;;9.60;99.90;;;;;;5033430;28;20058;-73
2021/12/29 03:06:30;;;;;;;27.58;5.65;;;9.60;99.90;;;;;;5033672;28;20029;-73
2021/12/29 03:08:56;;;;;;;18.23;5.80;;;9.60;99.90;;;;;;5031858;28;20050;-73
2021/12/29 03:11:22;;;;;;;18.23;5.65;;;9.60;99.90;;;;;;5033073;28;20021;-73
2021/12/29 03:13:48;;;;;;;26.73;6.18;;;9.60;99.90;;;;;;5032908;28;20014;-73
2021/12/29 03:16:14;;;;;;;18.48;5.43;;;9.60;99.90;;;;;;5032777;28;20443;-73
2021/12/29 03:18:41;;;;;;;17.50;4.78;;;9.60;99.90;;;;;;5031386;28;20026;-73
2021/12/29 03:21:07;;;;;;;21.20;5.10;;;9.60;99.90;;;;;;5032540;28;20470;-74
2021/12/29 03:23:33;;;;;;;20.60;4.90;;;9.60;99.90;;;;;;5031232;28;20030;-74
2021/12/29 03:25:59;;;;;;;18.60;4.65;;;9.60;99.90;;;;;;5033143;28;20121;-74
2021/12/29 03:28:25;;;;;;;19.20;3.47;;;9.60;99.90;;;;;;5035548;28;20101;-75
2021/12/29 03:30:54;;;;;;;19.38;4.00;;;9.50;99.90;;;;;;5035259;28;20045;-73
2021/12/29 03:33:20;;;;;;;21.85;4.28;;;9.50;99.90;;;;;;5035362;28;20029;-73
2021/12/29 03:35:50;;;;;;;19.85;3.55;;;9.50;99.90;;;;;;5034731;28;20021;-74
2021/12/29 03:38:18;;;;;;;23.08;4.03;;;9.50;99.90;;;;;;5032899;28;20110;-73
2021/12/29 03:40:45;;;;;;;23.58;4.20;;;9.50;99.90;;;;;;5034341;28;20022;-75
2021/12/29 03:43:12;;;;;;;18.63;3.88;;;9.50;99.90;;;;;;5032932;28;20592;-74
2021/12/29 03:45:40;;;;;;;20.90;4.95;;;9.50;99.90;;;;;;5033749;28;20338;-74
2021/12/29 03:48:06;;;;;;;25.45;5.82;;;9.50;99.90;;;;;;5033866;28;20038;-74
2021/12/29 03:50:32;;;;;;;23.30;5.72;;;9.50;99.90;;;;;;5033684;28;20112;-74
2021/12/29 03:52:57;;;;;;;21.35;5.20;;;9.50;99.90;;;;;;5033480;28;20057;-74
2021/12/29 03:55:23;;;;;;;21.80;5.75;;;9.50;99.90;;;;;;5034002;28;20091;-74
2021/12/29 03:57:49;;;;;;;24.52;6.30;;;9.50;99.90;;;;;;5034179;28;20018;-74
2021/12/29 04:00:18;;;;;;;29.50;5.78;;;9.50;99.90;;;;;;5033363;28;20044;-75
2021/12/29 04:02:44;;;;;;;28.35;5.25;;;9.50;99.90;;;;;;5031925;28;20466;-75
2021/12/29 04:05:13;;;;;;;34.20;6.20;;;9.50;99.90;;;;;;5033228;28;20036;-74
2021/12/29 04:07:39;;;;;;;34.70;5.88;;;9.50;99.90;;;;;;5033034;28;20479;-74
2021/12/29 04:10:07;;;;;;;26.73;5.20;;;9.50;99.90;;;;;;5033325;28;20024;-74
2021/12/29 04:12:33;;;;;;;25.30;4.57;;;9.50;99.90;;;;;;5033589;28;20022;-74
2021/12/29 04:14:58;;;;;;;24.48;4.72;;;9.50;99.90;;;;;;5032709;28;20090;-74
2021/12/29 04:17:29;;;;;;;17.35;3.80;;;9.40;99.90;;;;;;5033462;28;20030;-75
2021/12/29 04:22:40;;;;;;;29.67;4.60;;;9.40;99.90;;;;;;5033694;28;20051;-74
2021/12/29 04:25:07;;;;;;;23.13;4.72;;;9.40;99.90;;;;;;5033830;28;20030;-73
2021/12/29 04:27:33;;;;;;;34.45;5.25;;;9.40;99.90;;;;;;5032461;28;20093;-74
2021/12/29 04:29:58;;;;;;;25.20;5.47;;;9.40;99.90;;;;;;5034097;28;20426;-74
2021/12/29 04:32:24;;;;;;;30.40;5.20;;;9.40;99.90;;;;;;5033691;28;20028;-74
2021/12/29 04:34:50;;;;;;;30.65;4.68;;;9.40;99.90;;;;;;5034163;28;20104;-74
2021/12/29 04:37:15;;;;;;;20.25;5.28;;;9.40;99.90;;;;;;5032808;28;20056;-73
2021/12/29 04:39:41;;;;;;;22.00;4.75;;;9.40;99.90;;;;;;5034209;28;20022;-73
2021/12/29 04:42:07;;;;;;;24.15;5.00;;;9.40;99.90;;;;;;5034270;28;20446;-73
2021/12/29 04:44:32;;;;;;;24.15;5.13;;;9.40;99.90;;;;;;5033951;28;20037;-73
2021/12/29 04:46:58;;;;;;;20.27;5.35;;;9.40;99.90;;;;;;5034566;28;20030;-74
2021/12/29 04:49:28;;;;;;;30.52;6.15;;;9.40;99.90;;;;;;5034293;28;20528;-74
2021/12/29 04:52:03;;;;;;;25.23;6.18;;;9.40;99.90;;;;;;5034781;28;20162;-74
2021/12/29 04:54:30;;;;;;;28.83;5.97;;;9.40;99.90;;;;;;5034762;28;20029;-74
2021/12/29 04:56:56;;;;;;;26.92;6.53;;;9.40;99.90;;;;;;5034725;28;20032;-74
2021/12/29 04:59:24;;;;;;;25.20;6.28;;;9.40;99.90;;;;;;5034375;28;20032;-74
2021/12/29 05:01:49;;;;;;;28.90;7.45;;;9.40;99.90;;;;;;5034368;28;20109;-74
2021/12/29 05:04:32;;;;;;;21.10;5.68;;;9.40;99.90;;;;;;5033936;28;20049;-73
2021/12/29 05:09:42;;;;;;;16.70;6.28;;;9.50;99.90;;;;;;5034787;28;20060;-74
2021/12/29 05:12:08;;;;;;;19.48;6.45;;;9.50;99.90;;;;;;5034040;28;20025;-74
2021/12/29 05:14:34;;;;;;;23.98;6.53;;;9.50;99.90;;;;;;5032297;28;20094;-73
2021/12/29 05:17:00;;;;;;;19.77;6.60;;;9.50;99.90;;;;;;5033007;28;20544;-73
2021/12/29 05:19:26;;;;;;;19.67;5.65;;;9.50;99.90;;;;;;5032395;28;20021;-75
2021/12/29 05:21:53;;;;;;;19.55;7.22;;;9.50;99.90;;;;;;5032976;28;20052;-75
2021/12/29 05:24:19;;;;;;;24.60;6.70;;;9.40;99.90;;;;;;5033325;28;20017;-74
2021/12/29 05:26:44;;;;;;;23.25;6.50;;;9.50;99.90;;;;;;5033153;28;20064;-74
2021/12/29 05:29:10;;;;;;;24.65;6.82;;;9.50;99.90;;;;;;5033144;28;20085;-75
2021/12/29 05:31:36;;;;;;;16.80;6.07;;;9.40;99.90;;;;;;5033124;28;20033;-73
2021/12/29 05:34:01;;;;;;;21.83;6.45;;;9.50;99.90;;;;;;5033289;28;20033;-74
2021/12/29 05:36:27;;;;;;;16.95;6.55;;;9.50;99.90;;;;;;5033214;28;20440;-74
2021/12/29 05:38:53;;;;;;;22.20;7.22;;;9.50;99.90;;;;;;5033384;28;20023;-74
2021/12/29 05:41:20;;;;;;;21.33;6.63;;;9.40;99.90;;;;;;5033059;28;20025;-73
2021/12/29 05:43:46;;;;;;;18.17;7.28;;;9.40;99.90;;;;;;5033251;28;20022;-74
2021/12/29 05:46:11;;;;;;;21.30;6.65;;;9.40;99.90;;;;;;5033005;28;20393;-73
2021/12/29 05:48:37;;;;;;;23.88;6.93;;;9.40;99.90;;;;;;5032683;28;20074;-74
2021/12/29 05:51:03;;;;;;;16.00;6.53;;;9.40;99.90;;;;;;5032934;28;20030;-74
2021/12/29 05:53:29;;;;;;;22.35;7.25;;;9.40;99.90;;;;;;5033174;28;20029;-74
2021/12/29 05:55:55;;;;;;;25.42;6.50;;;9.40;99.90;;;;;;5032662;28;20021;-75
2021/12/29 05:58:20;;;;;;;22.63;6.88;;;9.40;99.90;;;;;;5032929;28;20030;-74
2021/12/29 06:00:46;;;;;;;18.40;6.60;;;9.40;99.90;;;;;;5032316;28;20025;-74
2021/12/29 06:03:12;;;;;;;17.85;7.28;;;9.40;99.90;;;;;;5032257;28;20423;-75
2021/12/29 06:05:38;;;;;;;21.38;7.03;;;9.40;99.90;;;;;;5032342;28;20599;-75
2021/12/29 06:08:05;;;;;;;17.40;7.13;;;9.40;99.90;;;;;;5031505;28;20532;-75
2021/12/29 06:10:31;;;;;;;27.42;7.05;;;9.40;99.90;;;;;;5035600;28;20021;-73
2021/12/29 06:12:57;;;;;;;25.05;6.68;;;9.40;99.90;;;;;;5048263;28;20022;-74
2021/12/29 06:15:23;;;;;;;17.52;6.68;;;9.40;99.90;;;;;;5042840;28;20028;-74
2021/12/29 06:17:49;;;;;;;17.33;5.82;;;9.40;99.90;;;;;;5045144;28;20061;-74
2021/12/29 06:20:15;;;;;;;20.60;6.20;;;9.40;99.90;;;;;;5042531;28;20025;-73
2021/12/29 06:22:42;;;;;;;18.45;5.30;;;9.40;99.90;;;;;;5039199;28;20024;-74
2021/12/29 06:25:13;;;;;;;17.77;5.78;;;9.40;99.90;;;;;;5047518;28;20029;-74
2021/12/29 06:27:39;;;;;;;16.15;5.47;;;9.40;99.90;;;;;;5035022;28;20052;-74
2021/12/29 06:30:07;;;;;;;15.82;5.55;;;9.40;99.90;;;;;;5044554;28;20101;-74
2021/12/29 06:32:33;;;;;;;18.00;5.47;;;9.40;99.90;;;;;;5042265;28;20031;-74
2021/12/29 06:34:58;;;;;;;15.30;4.82;;;9.40;99.90;;;;;;5038354;28;20513;-73
2021/12/29 06:37:24;;;;;;;16.55;5.47;;;9.40;99.90;;;;;;5031865;28;20056;-73
2021/12/29 06:39:50;;;;;;;17.40;5.03;;;9.40;99.90;;;;;;5032239;28;20060;-74
2021/12/29 06:42:17;;;;;;;15.43;5.20;;;9.40;99.90;;;;;;5041506;28;20022;-74
2021/12/29 06:44:44;;;;;;;15.98;5.10;;;9.40;99.90;;;;;;5044071;28;20121;-74
2021/12/29 06:47:10;;;;;;;17.50;5.15;;;9.40;99.90;;;;;;5051873;28;20058;-75
2021/12/29 06:49:36;;;;;;;13.18;5.60;;;9.40;99.90;;;;;;5052699;28;20029;-74
2021/12/29 06:52:03;;;;;;;17.60;5.18;;;9.40;99.90;;;;;;5052931;28;20028;-75
2021/12/29 06:54:29;;;;;;;19.73;6.32;;;9.40;99.90;;;;;;5052960;28;20032;-74
2021/12/29 06:56:55;;;;;;;15.13;6.70;;;9.40;99.90;;;;;;5051166;28;20029;-74
2021/12/29 06:59:20;;;;;;;19.92;6.53;;;9.40;99.90;;;;;;5052439;27;20580;-74
2021/12/29 07:01:46;;;;;;;17.42;7.28;;;9.40;99.90;;;;;;5043093;28;20035;-74
2021/12/29 07:04:12;;;;;;;23.05;7.45;;;9.40;99.90;;;;;;5039731;28;20021;-74
2021/12/29 07:06:38;;;;;;;18.95;7.97;;;9.40;99.90;;;;;;5035085;28;20051;-74
2021/12/29 07:09:04;;;;;;;18.23;7.90;;;9.40;99.90;;;;;;5036483;28;20509;-74
2021/12/29 07:11:30;;;;;;;19.00;8.73;;;9.40;99.90;;;;;;5034071;28;20432;-74
2021/12/29 07:13:59;;;;;;;17.85;8.23;;;9.40;99.90;;;;;;5034089;28;20025;-73
2021/12/29 07:16:25;;;;;;;18.38;8.40;;;9.40;99.90;;;;;;5034310;28;20048;-74
2021/12/29 07:18:50;;;;;;;15.05;7.95;;;9.40;99.90;;;;;;5034100;28;20030;-73
2021/12/29 07:21:16;;;;;;;20.23;7.75;;;9.40;99.90;;;;;;5035136;28;20029;-74
2021/12/29 07:23:42;;;;;;;23.58;8.38;;;9.40;99.90;;;;;;5034229;28;20115;-74
2021/12/29 07:26:07;;;;;;;18.15;8.18;;;9.40;99.90;;;;;;5034411;28;20108;-73
2021/12/29 07:28:33;;;;;;;20.23;9.00;;;9.30;99.90;;;;;;5034622;28;20026;-74
2021/12/29 07:30:58;;;;;;;19.25;8.75;;;9.30;99.90;;;;;;5034064;28;20057;-73
2021/12/29 07:33:24;;;;;;;19.67;8.10;;;9.30;99.90;;;;;;5033800;28;20029;-73
2021/12/29 07:35:50;;;;;;;18.92;8.88;;;9.30;99.90;;;;;;5033713;28;20029;-73
2021/12/29 07:38:15;;;;;;;19.58;8.85;;;9.30;99.90;;;;;;5034871;28;20021;-73
2021/12/29 07:40:42;;;;;;;19.58;8.38;;;9.30;99.90;;;;;;5034166;28;20032;-73
2021/12/29 07:43:08;;;;;;;17.20;9.30;;;9.30;99.90;;;;;;5034064;28;20391;-75
2021/12/29 07:45:33;;;;;;;21.42;9.88;;;9.20;99.90;;;;;;5034281;28;20371;-73
2021/12/29 07:48:00;;;;;;;18.95;9.13;;;9.20;99.90;;;;;;5034237;28;20093;-74
2021/12/29 07:50:25;;;;;;;19.27;9.32;;;9.20;99.90;;;;;;5034035;28;20462;-74
2021/12/29 07:52:51;;;;;;;22.20;8.55;;;9.20;99.90;;;;;;5034252;28;20028;-74
2021/12/29 07:55:20;;;;;;;16.58;8.98;;;9.20;99.90;;;;;;5033800;28;20045;-73
2021/12/29 07:57:47;;;;;;;24.85;9.45;;;9.20;99.90;;;;;;5035059;28;20027;-74
2021/12/29 08:00:15;;;;;;;27.20;9.13;;;9.20;99.90;;;;;;5034558;28;20055;-73
2021/12/29 08:02:43;;;;;;;20.80;9.27;;;9.20;99.90;;;;;;5034622;28;20025;-74
2021/12/29 08:05:10;;;;;;;21.27;8.85;;;9.20;99.90;;;;;;5041133;28;20029;-74
2021/12/29 08:07:39;;;;;;;26.38;9.57;;;9.20;99.90;;;;;;5054388;28;20034;-74
2021/12/29 08:10:06;;;;;;;18.67;8.93;;;9.10;99.90;;;;;;5054365;28;20423;-74
2021/12/29 08:12:31;;;;;;;20.15;9.02;;;9.10;99.90;;;;;;5045779;28;20018;-74
2021/12/29 08:14:57;;;;;;;26.55;9.35;;;9.10;99.90;;;;;;5049454;28;20032;-74
2021/12/29 08:17:23;;;;;;;22.48;9.43;;;9.10;99.90;;;;;;5052113;28;20037;-74
2021/12/29 08:19:50;;;;;;;19.20;8.00;;;9.10;99.90;;;;;;5044033;28;20045;-74
2021/12/29 08:22:17;;;;;;;25.98;8.55;;;9.10;99.90;;;;;;5048829;28;20021;-73
2021/12/29 08:24:42;;;;;;;27.52;8.30;;;9.10;99.90;;;;;;5038446;28;20034;-73
2021/12/29 08:27:16;;;;;;;18.00;7.88;;;9.10;99.90;;;;;;5040054;28;20040;-73
2021/12/29 08:29:41;;;;;;;17.05;7.50;;;9.10;99.90;;;;;;5033577;28;20122;-74
2021/12/29 08:32:07;;;;;;;14.48;7.80;;;9.10;99.90;;;;;;5032249;28;20022;-74
2021/12/29 08:34:33;;;;;;;17.42;7.53;;;9.10;99.90;;;;;;5033200;28;20387;-74
2021/12/29 08:36:58;;;;;;;17.85;7.15;;;9.00;99.90;;;;;;5033268;28;20033;-72
2021/12/29 08:39:25;;;;;;;19.98;7.75;;;9.00;99.90;;;;;;5033983;28;20022;-73
2021/12/29 08:41:51;;;;;;;18.58;8.02;;;9.10;99.90;;;;;;5033176;28;20041;-73
2021/12/29 08:44:18;;;;;;;16.98;7.40;;;9.00;99.90;;;;;;5033526;28;20021;-73
2021/12/29 08:46:44;;;;;;;18.90;7.50;;;9.00;99.90;;;;;;5033470;28;20026;-74
2021/12/29 08:49:10;;;;;;;18.10;7.95;;;9.00;99.90;;;;;;5033272;28;20123;-73
2021/12/29 08:51:35;;;;;;;12.85;6.97;;;9.00;99.90;;;;;;5033489;28;20061;-73
2021/12/29 08:54:01;;;;;;;14.38;7.25;;;9.00;99.90;;;;;;5031248;28;20026;-73
2021/12/29 08:56:27;;;;;;;16.83;7.07;;;9.00;99.90;;;;;;5030641;28;20038;-75
2021/12/29 08:58:53;;;;;;;25.67;7.82;;;9.00;99.90;;;;;;5030128;28;20471;-74
2021/12/29 09:01:23;;;;;;;14.38;7.38;;;9.00;99.90;;;;;;5030517;28;20273;-74
2021/12/29 09:03:50;;;;;;;19.98;7.45;;;9.00;99.90;;;;;;5031064;28;20024;-73
2021/12/29 09:06:16;;;;;;;18.55;7.45;;;9.00;99.90;;;;;;5030942;28;20033;-74
2021/12/29 09:08:42;;;;;;;23.05;8.15;;;9.00;99.90;;;;;;5030258;28;20030;-74
2021/12/29 09:11:09;;;;;;;16.25;8.38;;;9.00;99.90;;;;;;5031232;28;20414;-74
2021/12/29 09:13:35;;;;;;;18.30;8.32;;;9.00;99.90;;;;;;5030057;28;20029;-74
2021/12/29 09:16:01;;;;;;;23.80;9.13;;;9.00;99.90;;;;;;5030577;28;20486;-74
2021/12/29 09:18:29;;;;;;;25.73;8.13;;;9.00;99.90;;;;;;5031324;28;20022;-74
2021/12/29 09:21:02;;;;;;;19.60;9.45;;;9.00;99.90;;;;;;5031505;28;20391;-73
2021/12/29 09:23:28;;;;;;;16.77;8.05;;;9.00;99.90;;;;;;5041920;28;20037;-74
2021/12/29 09:25:55;;;;;;;20.30;8.07;;;9.00;99.90;;;;;;5051350;28;20028;-73
2021/12/29 09:28:22;;;;;;;18.40;7.95;;;9.00;99.90;;;;;;5051199;28;20035;-73
2021/12/29 09:30:49;;;;;;;19.35;7.78;;;9.00;99.90;;;;;;5051920;28;20457;-74
2021/12/29 09:33:16;;;;;;;21.33;8.40;;;9.00;99.90;;;;;;5047637;28;20017;-74
2021/12/29 09:35:42;;;;;;;21.60;8.13;;;9.10;99.90;;;;;;5045379;28;20096;-73
2021/12/29 09:38:09;;;;;;;16.27;7.50;;;9.10;99.90;;;;;;5061876;27;20038;-73
2021/12/29 09:40:36;;;;;;;16.38;7.90;;;9.10;99.90;;;;;;5052427;28;20073;-73
2021/12/29 09:43:03;;;;;;;13.05;7.20;;;9.10;99.90;;;;;;5049760;28;20032;-73
2021/12/29 09:45:30;;;;;;;16.17;8.18;;;9.10;99.90;;;;;;5043975;28;20073;-74
2021/12/29 09:47:57;;;;;;;18.88;7.50;;;9.10;99.90;;;;;;5040835;28;20025;-73
2021/12/29 09:50:23;;;;;;;15.20;8.00;;;9.00;99.90;;;;;;5044575;28;20014;-74
2021/12/29 09:52:49;;;;;;;16.55;8.13;;;9.10;99.90;;;;;;5042137;28;20025;-74
2021/12/29 09:55:19;;;;;;;16.95;8.20;;;9.10;99.90;;;;;;5046991;28;20017;-73
2021/12/29 09:57:48;;;;;;;14.20;7.88;;;9.10;99.90;;;;;;5036093;28;20034;-73
2021/12/29 10:00:29;;;;;;;13.88;7.68;;;9.10;99.90;;;;;;5045275;28;20017;-73
2021/12/29 10:02:56;;;;;;;17.48;7.28;;;9.10;99.90;;;;;;5044925;28;20037;-73
2021/12/29 10:05:26;;;;;;;12.85;7.38;;;9.10;99.90;;;;;;5038170;28;20557;-73
2021/12/29 10:08:14;;;;;;;13.40;7.20;;;9.10;99.90;;;;;;5040514;28;20023;-73
2021/12/29 10:10:44;;;;;;;18.83;7.30;;;9.10;99.90;;;;;;5039102;28;20109;-73
2021/12/29 10:13:11;;;;;;;14.38;6.72;;;9.10;99.90;;;;;;5037599;28;20025;-74
2021/12/29 10:15:41;;;;;;;19.67;7.43;;;9.10;99.90;;;;;;5041730;28;20022;-75
2021/12/29 10:18:15;;;;;;;16.02;7.70;;;9.10;99.90;;;;;;5038423;28;20109;-74
2021/12/29 10:20:53;;;;;;;13.63;7.97;;;9.10;99.90;;;;;;5039141;28;20029;-74
2021/12/29 10:23:21;;;;;;;15.00;8.13;;;9.10;99.90;;;;;;5040534;28;20071;-74
2021/12/29 10:25:50;;;;;;;14.38;8.15;;;9.20;99.90;;;;;;5040076;28;20332;-74
2021/12/29 10:28:22;;;;;;;23.67;8.50;;;9.20;99.90;;;;;;5037578;28;20108;-74
2021/12/29 10:31:17;;;;;;;21.17;8.38;;;9.30;99.90;;;;;;5045002;28;20339;-73
2021/12/29 10:33:55;;;;;;;16.10;8.32;;;9.40;99.90;;;;;;5042531;28;20116;-74
2021/12/29 10:36:36;;;;;;;15.68;8.70;;;9.40;99.90;;;;;;5037467;28;20021;-74
2021/12/29 10:39:01;;;;;;;14.48;8.05;;;9.40;99.90;;;;;;5036894;28;20021;-74
2021/12/29 10:41:29;;;;;;;15.68;8.48;;;9.30;99.90;;;;;;5040420;28;20417;-74
2021/12/29 10:43:59;;;;;;;16.45;8.60;;;9.30;99.90;;;;;;5036812;28;20026;-73
2021/12/29 10:46:26;;;;;;;15.02;8.40;;;9.30;99.90;;;;;;5043459;28;20308;-73
2021/12/29 10:48:53;;;;;;;21.63;9.50;;;9.30;99.90;;;;;;5040308;28;20025;-73
2021/12/29 10:51:25;;;;;;;18.23;9.13;;;9.30;99.90;;;;;;5042439;28;20013;-74
2021/12/29 10:53:51;;;;;;;21.17;9.55;;;9.20;99.90;;;;;;5042295;28;20051;-73
2021/12/29 10:56:25;;;;;;;17.48;9.15;;;9.20;99.90;;;;;;5038738;28;20046;-73
2021/12/29 10:58:53;;;;;;;19.25;8.70;;;9.20;99.90;;;;;;5042856;28;20021;-74
2021/12/29 11:01:20;;;;;;;19.13;9.20;;;9.20;99.90;;;;;;5044278;28;20100;-73
2021/12/29 11:03:58;;;;;;;16.88;8.88;;;9.20;99.90;;;;;;5039364;28;20094;-73
2021/12/29 11:06:26;;;;;;;21.55;8.88;;;9.20;99.90;;;;;;5040809;28;20029;-74
2021/12/29 11:08:58;;;;;;;21.55;9.38;;;9.20;99.90;;;;;;5040358;28;20075;-73
2021/12/29 11:11:33;;;;;;;24.95;10.15;;;9.20;99.90;;;;;;5039909;28;20022;-72
2021/12/29 11:14:17;;;;;;;19.23;9.93;;;9.20;99.90;;;;;;5047289;28;20026;-73
2021/12/29 11:16:44;;;;;;;18.50;9.55;;;9.20;99.90;;;;;;5036835;28;20045;-75
2021/12/29 11:19:10;;;;;;;20.38;9.35;;;9.30;99.90;;;;;;5033247;28;20124;-73
2021/12/29 11:21:39;;;;;;;22.65;9.35;;;9.30;99.90;;;;;;5055800;28;20355;-73
2021/12/29 11:24:12;;;;;;;18.25;9.70;;;9.30;99.90;;;;;;5039213;28;20086;-73
2021/12/29 11:26:38;;;;;;;22.23;9.65;;;9.30;99.90;;;;;;5046950;28;20029;-73
2021/12/29 11:29:13;;;;;;;19.95;10.02;;;9.30;99.90;;;;;;5041523;28;20556;-73
2021/12/29 11:31:43;;;;;;;23.85;11.23;;;9.30;99.90;;;;;;5039273;28;20677;-74
2021/12/29 11:34:35;;;;;;;26.08;11.52;;;9.30;99.90;;;;;;5040947;28;20028;-73
2021/12/29 11:37:07;;;;;;;24.52;12.15;;;9.40;99.90;;;;;;5047508;28;20086;-74
2021/12/29 11:39:37;;;;;;;24.23;11.55;;;9.40;99.90;;;;;;5037686;28;20460;-73
2021/12/29 11:42:04;;;;;;;26.50;12.10;;;9.40;99.90;;;;;;5029896;28;20037;-76
2021/12/29 11:44:29;;;;;;;26.10;10.95;;;9.40;99.90;;;;;;5029161;28;20025;-73
2021/12/29 11:46:55;;;;;;;19.80;10.27;;;9.40;99.90;;;;;;5030418;28;20026;-74
2021/12/29 11:49:21;;;;;;;20.88;9.50;;;9.40;99.90;;;;;;5035760;28;20037;-73
2021/12/29 11:52:05;;;;;;;16.45;9.45;;;9.40;99.90;;;;;;5034607;28;20021;-74
2021/12/29 11:54:42;;;;;;;24.05;9.75;;;9.40;99.90;;;;;;5030587;28;20034;-74
2021/12/29 11:57:13;;;;;;;27.67;10.02;;;9.50;99.90;;;;;;5031053;28;20030;-74
2021/12/29 11:59:39;;;;;;;18.77;8.13;;;9.60;99.90;;;;;;5031105;28;20028;-74
2021/12/29 12:02:05;;;;;;;295.92;29.27;;;9.60;99.90;;;;;;5031458;28;20084;-73
2021/12/29 12:04:31;;;;;;;22.67;8.40;;;9.60;99.90;;;;;;5031895;28;20022;-73
2021/12/29 12:07:07;;;;;;;32.40;8.50;;;9.70;99.90;;;;;;5035589;28;20025;-74
2021/12/29 12:09:50;;;;;;;20.73;8.18;;;9.70;99.90;;;;;;5053437;28;20070;-74
2021/12/29 12:12:17;;;;;;;24.35;8.82;;;9.70;99.90;;;;;;5048362;28;20021;-77
2021/12/29 12:14:49;;;;;;;20.10;7.30;;;9.70;99.90;;;;;;5050450;28;20060;-73
2021/12/29 12:17:20;;;;;;;20.75;7.82;;;9.70;99.90;;;;;;5050647;28;20470;-73
2021/12/29 12:19:56;;;;;;;21.02;8.05;;;9.70;99.90;;;;;;5049660;28;20064;-74
2021/12/29 12:22:22;;;;;;;18.65;7.97;;;9.70;99.90;;;;;;5044241;28;20037;-74
2021/12/29 12:24:51;;;;;;;24.73;8.68;;;9.70;99.90;;;;;;5050540;27;20081;-72
2021/12/29 12:27:29;;;;;;;19.40;8.10;;;9.70;99.90;;;;;;5052970;27;20439;-73
2021/12/29 12:30:04;;;;;;;19.35;7.97;;;9.60;99.90;;;;;;5050047;28;20089;-74
2021/12/29 12:32:39;;;;;;;23.02;9.68;;;9.60;99.90;;;;;;5052024;27;20025;-74
2021/12/29 12:35:06;;;;;;;;;;;9.60;99.90;;;;;;5052565;27;20112;-74
2021/12/29 12:37:34;;;;;;;23.42;8.90;;;9.60;99.90;;;;;;5052060;28;19916;-74
2021/12/29 12:40:06;;;;;;;20.80;9.27;;;9.60;99.90;;;;;;5051335;27;20426;-74
2021/12/29 12:42:34;;;;;;;23.10;9.45;;;9.60;99.90;;;;;;5046666;28;20021;-74
2021/12/29 12:45:00;;;;;;;22.58;10.73;;;9.60;99.90;;;;;;5047484;28;20045;-74
2021/12/29 12:47:32;;;;;;;25.30;10.75;;;9.60;99.90;;;;;;5031771;28;20037;-74
2021/12/29 12:49:59;;;;;;;28.15;10.93;;;9.60;99.90;;;;;;5049834;28;20129;-74
2021/12/29 12:52:26;;;;;;;30.98;10.63;;;9.60;99.90;;;;;;5050655;28;20389;-73